Time;durP1;ratioP1;P1;durP2;ratioP2;P2;SDS_P1;SDS_P2;PMS_P1;PMS_P2;Temp;Humidity;BMP_temperature;BMP_pressure;BME280_temperature;BME280_humidity;BME280_pressure;Samples;Min_cycle;Max_cycle;Signal;HPM_P1;HPM_P2
2021/01/05 00:01:25;;;;;;;8.15;6.97;;;18.70;49.20;;;;;;4985054;28;20800;-67
2021/01/05 00:03:50;;;;;;;8.82;6.75;;;18.70;49.20;;;;;;5004272;28;20034;-65
2021/01/05 00:06:16;;;;;;;10.95;7.55;;;18.80;49.20;;;;;;5002239;28;20044;-66
2021/01/05 00:08:41;;;;;;;9.68;7.03;;;18.80;49.20;;;;;;5003500;28;20034;-67
2021/01/05 00:11:07;;;;;;;8.90;7.18;;;18.80;49.20;;;;;;5002167;28;20099;-67
2021/01/05 00:13:32;;;;;;;9.02;7.35;;;18.80;49.20;;;;;;5003935;28;20038;-66
2021/01/05 00:15:58;;;;;;;8.98;6.82;;;18.80;49.10;;;;;;5003417;28;20030;-67
2021/01/05 00:18:23;;;;;;;11.70;7.93;;;18.80;49.10;;;;;;5002656;28;20025;-66
2021/01/05 00:20:49;;;;;;;9.18;7.55;;;18.80;49.10;;;;;;5001562;28;21423;-67
2021/01/05 00:23:14;;;;;;;9.30;7.88;;;18.80;49.10;;;;;;5003451;28;20099;-65
2021/01/05 00:25:40;;;;;;;9.02;8.02;;;18.90;49.10;;;;;;5003944;28;20029;-65
2021/01/05 00:28:05;;;;;;;10.10;8.00;;;18.80;49.00;;;;;;5002419;28;20061;-67
2021/01/05 00:30:31;;;;;;;9.18;7.35;;;18.90;49.10;;;;;;5001988;28;20037;-67
2021/01/05 00:32:56;;;;;;;9.30;7.88;;;18.90;49.10;;;;;;5018248;28;20034;-67
2021/01/05 00:35:25;;;;;;;9.00;7.82;;;18.90;49.10;;;;;;4985886;28;20135;-66
2021/01/05 00:37:51;;;;;;;9.75;8.45;;;18.90;49.00;;;;;;5001657;28;20038;-67
2021/01/05 00:40:17;;;;;;;9.05;7.75;;;18.90;49.00;;;;;;5002326;28;20052;-66
2021/01/05 00:42:43;;;;;;;8.85;7.72;;;18.90;49.00;;;;;;5002246;28;20545;-67
2021/01/05 00:45:09;;;;;;;10.32;8.18;;;18.90;48.90;;;;;;5002010;28;20061;-67
2021/01/05 00:47:35;;;;;;;9.48;8.02;;;18.90;49.00;;;;;;5001764;28;20040;-67
2021/01/05 00:50:00;;;;;;;9.93;8.35;;;18.90;48.90;;;;;;5002330;28;20034;-67
2021/01/05 00:52:26;;;;;;;9.98;8.35;;;18.90;48.90;;;;;;5002307;28;20460;-67
2021/01/05 00:54:51;;;;;;;9.55;7.68;;;18.90;48.90;;;;;;5002363;28;20585;-67
2021/01/05 00:57:17;;;;;;;9.32;7.90;;;18.90;48.90;;;;;;5003663;28;20034;-67
2021/01/05 00:59:42;;;;;;;10.27;7.90;;;18.90;48.90;;;;;;5001395;28;20030;-66
2021/01/05 01:02:08;;;;;;;10.63;8.80;;;18.90;48.90;;;;;;5006782;28;20633;-66
2021/01/05 01:04:33;;;;;;;8.77;7.88;;;18.90;48.90;;;;;;5007187;28;20083;-66
2021/01/05 01:06:59;;;;;;;9.13;8.07;;;18.80;48.80;;;;;;5006029;28;20038;-66
2021/01/05 01:09:24;;;;;;;9.63;7.68;;;18.90;48.80;;;;;;5006200;28;20034;-67
2021/01/05 01:12:14;;;;;;;10.50;8.35;;;18.90;48.80;;;;;;5005654;28;20034;-66
2021/01/05 01:14:40;;;;;;;10.82;9.05;;;18.90;48.90;;;;;;5006581;28;20034;-67
2021/01/05 01:17:06;;;;;;;11.45;8.95;;;18.90;48.90;;;;;;5005165;28;20041;-67
2021/01/05 01:19:31;;;;;;;10.43;8.63;;;18.90;48.80;;;;;;5005360;28;20702;-67
2021/01/05 01:21:57;;;;;;;9.15;8.00;;;18.90;48.80;;;;;;5007023;28;20034;-67
2021/01/05 01:24:23;;;;;;;8.95;7.68;;;18.90;48.80;;;;;;5005465;28;20034;-67
2021/01/05 01:26:49;;;;;;;9.90;8.52;;;18.90;48.80;;;;;;4988593;28;21037;-67
2021/01/05 01:29:16;;;;;;;9.90;8.52;;;18.90;48.70;;;;;;5006794;28;20030;-67
2021/01/05 01:31:41;;;;;;;9.35;7.97;;;18.90;48.80;;;;;;5005633;28;20029;-67
2021/01/05 01:34:07;;;;;;;10.60;8.38;;;18.90;48.70;;;;;;5005384;28;20105;-66
2021/01/05 01:36:32;;;;;;;10.07;8.77;;;18.90;48.70;;;;;;5006681;28;20464;-64
2021/01/05 01:38:58;;;;;;;9.82;8.07;;;18.90;48.80;;;;;;5006982;28;20052;-66
2021/01/05 01:41:23;;;;;;;9.63;8.45;;;18.90;48.70;;;;;;5006241;28;20030;-66
2021/01/05 01:43:49;;;;;;;10.48;8.40;;;18.80;48.70;;;;;;5005358;28;20421;-66
2021/01/05 01:46:14;;;;;;;9.25;7.60;;;18.80;48.80;;;;;;5006660;28;20084;-66
2021/01/05 01:48:41;;;;;;;9.43;7.97;;;18.80;48.80;;;;;;5007663;28;20033;-67
2021/01/05 01:51:06;;;;;;;10.20;8.43;;;18.90;48.80;;;;;;5006541;28;20116;-65
2021/01/05 01:53:49;;;;;;;8.85;7.95;;;18.80;48.70;;;;;;5003334;28;20061;-67
2021/01/05 01:56:26;;;;;;;10.60;8.50;;;18.80;48.70;;;;;;5006661;28;20305;-66
2021/01/05 01:59:22;;;;;;;8.80;7.90;;;18.90;48.80;;;;;;5005035;28;20033;-66
2021/01/05 02:01:57;;;;;;;9.13;7.70;;;18.90;48.80;;;;;;5005374;28;20041;-66
2021/01/05 02:04:39;;;;;;;8.32;7.47;;;18.90;48.80;;;;;;5004532;28;20454;-65
2021/01/05 02:07:39;;;;;;;9.20;8.13;;;18.90;48.80;;;;;;5000009;28;20105;-67
2021/01/05 02:10:32;;;;;;;8.93;7.93;;;18.90;48.70;;;;;;4999069;28;21433;-65
2021/01/05 02:13:08;;;;;;;8.30;7.18;;;18.90;48.70;;;;;;4997261;28;20042;-66
2021/01/05 02:16:01;;;;;;;10.38;8.25;;;18.90;48.70;;;;;;5004304;28;20053;-63
2021/01/05 02:18:38;;;;;;;8.95;7.70;;;18.80;48.70;;;;;;5005852;28;20254;-66
2021/01/05 02:21:08;;;;;;;9.00;7.90;;;18.80;48.70;;;;;;5014676;28;20038;-67
2021/01/05 02:23:43;;;;;;;9.40;7.85;;;18.80;48.60;;;;;;5004366;28;20038;-67
2021/01/05 02:26:29;;;;;;;8.68;7.25;;;18.80;48.60;;;;;;5004925;28;20038;-67
2021/01/05 02:29:02;;;;;;;9.50;7.82;;;18.80;48.60;;;;;;5004593;28;20042;-64
2021/01/05 02:31:55;;;;;;;8.77;7.85;;;18.70;48.60;;;;;;5004289;28;20519;-66
2021/01/05 02:34:45;;;;;;;9.05;7.45;;;18.70;48.60;;;;;;4997910;28;20065;-66
2021/01/05 02:37:37;;;;;;;9.00;7.68;;;18.70;48.60;;;;;;5005390;28;20069;-66
2021/01/05 02:40:21;;;;;;;10.38;8.13;;;18.70;48.60;;;;;;5005962;28;20053;-66
2021/01/05 02:42:58;;;;;;;9.32;7.75;;;18.70;48.60;;;;;;4999827;28;20061;-66
2021/01/05 02:45:30;;;;;;;9.70;7.78;;;18.60;48.50;;;;;;5003520;28;20034;-67
2021/01/05 02:48:11;;;;;;;8.07;7.28;;;18.60;48.50;;;;;;4987740;28;20799;-66
2021/01/05 02:51:14;;;;;;;10.57;8.00;;;18.60;48.50;;;;;;5005271;28;20041;-66
2021/01/05 02:53:46;;;;;;;9.60;7.75;;;18.60;48.60;;;;;;5004863;28;20076;-67
2021/01/05 02:56:42;;;;;;;8.63;7.32;;;18.60;48.40;;;;;;5005611;28;20037;-66
2021/01/05 02:59:22;;;;;;;9.43;7.80;;;18.50;48.40;;;;;;5004282;28;20034;-67
2021/01/05 03:02:22;;;;;;;11.25;8.82;;;18.50;48.40;;;;;;5003499;28;20057;-66
2021/01/05 03:04:47;;;;;;;9.98;8.10;;;18.50;48.40;;;;;;5003374;28;20108;-66
2021/01/05 03:07:18;;;;;;;9.65;7.70;;;18.40;48.40;;;;;;5005442;28;20515;-67
2021/01/05 03:10:11;;;;;;;8.50;7.10;;;18.40;48.40;;;;;;5003741;28;20507;-66
2021/01/05 03:12:44;;;;;;;9.32;7.70;;;18.40;48.40;;;;;;5003668;28;20045;-66
2021/01/05 03:15:38;;;;;;;8.13;7.10;;;18.40;48.50;;;;;;5003561;28;20120;-67
2021/01/05 03:18:24;;;;;;;8.75;7.85;;;18.50;48.50;;;;;;5005232;28;20045;-67
2021/01/05 03:21:21;;;;;;;7.90;7.10;;;18.40;48.50;;;;;;5004504;28;20121;-66
2021/01/05 03:23:48;;;;;;;9.27;7.60;;;18.50;48.40;;;;;;4987995;28;22211;-67
2021/01/05 03:26:13;;;;;;;9.07;7.00;;;18.50;48.40;;;;;;5003714;28;20119;-67
2021/01/05 03:28:39;;;;;;;9.00;7.13;;;18.50;48.50;;;;;;5003367;28;20500;-67
2021/01/05 03:31:07;;;;;;;8.80;7.78;;;18.50;48.50;;;;;;5003533;28;20046;-66
2021/01/05 03:33:33;;;;;;;8.85;7.45;;;18.50;48.50;;;;;;5004464;28;20447;-66
2021/01/05 03:35:58;;;;;;;9.90;7.90;;;18.50;48.60;;;;;;5002862;28;20041;-67
2021/01/05 03:38:24;;;;;;;9.57;7.70;;;18.50;48.60;;;;;;5004379;28;20255;-66
2021/01/05 03:40:49;;;;;;;8.75;7.15;;;18.50;48.70;;;;;;5003917;28;20117;-67
2021/01/05 03:43:15;;;;;;;8.38;7.20;;;18.60;48.70;;;;;;5004433;28;20053;-66
2021/01/05 03:45:40;;;;;;;7.95;7.03;;;18.60;48.80;;;;;;5004057;28;20496;-66
2021/01/05 03:48:06;;;;;;;8.10;6.95;;;18.60;48.80;;;;;;5003632;28;20041;-67
2021/01/05 03:50:32;;;;;;;8.32;7.47;;;18.70;48.80;;;;;;5002768;28;20041;-67
2021/01/05 03:52:57;;;;;;;8.07;7.15;;;18.70;48.80;;;;;;5002674;28;20481;-66
2021/01/05 03:55:23;;;;;;;8.02;6.40;;;18.70;48.80;;;;;;5003147;28;20065;-67
2021/01/05 03:57:48;;;;;;;8.30;6.82;;;18.70;48.80;;;;;;5004508;28;20030;-67
2021/01/05 04:00:24;;;;;;;8.15;6.85;;;18.80;48.80;;;;;;5003989;28;20508;-64
2021/01/05 04:02:50;;;;;;;7.57;6.78;;;18.80;48.80;;;;;;5002744;28;20117;-66
2021/01/05 04:05:15;;;;;;;7.00;6.38;;;18.90;48.80;;;;;;5002512;28;20125;-66
2021/01/05 04:07:41;;;;;;;7.40;6.25;;;18.90;48.70;;;;;;5002610;28;20041;-67
2021/01/05 04:10:07;;;;;;;7.55;6.68;;;18.90;48.70;;;;;;5002834;28;20034;-67
2021/01/05 04:12:32;;;;;;;7.97;6.80;;;18.90;48.60;;;;;;5003635;28;20034;-66
2021/01/05 04:14:58;;;;;;;7.63;6.72;;;18.90;48.60;;;;;;5002567;28;20030;-67
2021/01/05 04:17:23;;;;;;;8.75;7.00;;;19.00;48.60;;;;;;4986174;28;20038;-67
2021/01/05 04:19:49;;;;;;;8.73;7.38;;;19.00;48.60;;;;;;5001909;28;20080;-67
2021/01/05 04:22:14;;;;;;;7.70;6.90;;;19.00;48.60;;;;;;5006378;28;20488;-66
2021/01/05 04:24:40;;;;;;;8.68;7.25;;;19.00;49.20;;;;;;5023823;28;20026;-66
2021/01/05 04:27:05;;;;;;;7.88;6.68;;;19.00;48.50;;;;;;5018391;28;20038;-67
2021/01/05 04:29:31;;;;;;;7.28;6.30;;;19.00;48.50;;;;;;5006803;28;20034;-66
2021/01/05 04:31:56;;;;;;;8.25;6.90;;;19.00;48.40;;;;;;5007230;28;20026;-67
2021/01/05 04:34:22;;;;;;;8.15;7.05;;;19.00;49.00;;;;;;5006750;28;20629;-66
2021/01/05 04:36:47;;;;;;;8.63;7.45;;;19.00;48.40;;;;;;5006161;28;20812;-67
2021/01/05 04:39:13;;;;;;;8.68;7.22;;;19.00;48.50;;;;;;5007252;28;20092;-66
2021/01/05 04:41:46;;;;;;;7.80;6.97;;;19.00;48.30;;;;;;5001797;28;20084;-67
2021/01/05 04:44:11;;;;;;;7.20;6.43;;;19.00;48.30;;;;;;5002517;28;20026;-67
2021/01/05 04:47:00;;;;;;;8.88;7.22;;;19.00;48.30;;;;;;5003969;28;20117;-67
2021/01/05 04:49:43;;;;;;;9.75;7.38;;;19.00;48.20;;;;;;4991969;28;20034;-66
2021/01/05 04:52:10;;;;;;;7.78;6.63;;;19.00;48.20;;;;;;4998587;28;20038;-67
2021/01/05 04:55:03;;;;;;;8.15;6.85;;;19.00;48.20;;;;;;5002272;28;20042;-66
2021/01/05 04:57:30;;;;;;;8.00;7.20;;;19.00;48.20;;;;;;5000598;28;20042;-66
2021/01/05 05:00:15;;;;;;;7.65;6.85;;;19.00;48.20;;;;;;4994613;28;20386;-65
2021/01/05 05:02:55;;;;;;;8.38;7.13;;;19.00;48.10;;;;;;5004217;28;20030;-66
2021/01/05 05:05:23;;;;;;;8.18;7.18;;;19.00;48.10;;;;;;4987279;28;21374;-65
2021/01/05 05:08:07;;;;;;;8.57;6.70;;;19.00;48.10;;;;;;4996481;28;20121;-63
2021/01/05 05:10:36;;;;;;;8.77;6.82;;;19.00;48.10;;;;;;5001885;28;20026;-63
2021/01/05 05:13:05;;;;;;;9.68;7.45;;;19.00;48.10;;;;;;5002751;28;20632;-66
2021/01/05 05:16:05;;;;;;;9.95;7.32;;;18.90;48.00;;;;;;5002886;28;20084;-66
2021/01/05 05:18:55;;;;;;;10.57;7.05;;;18.90;48.10;;;;;;5004187;28;20094;-65
2021/01/05 05:21:40;;;;;;;9.15;7.03;;;18.90;48.10;;;;;;5002311;28;20468;-65
2021/01/05 05:24:11;;;;;;;8.02;7.00;;;18.90;48.10;;;;;;4980419;28;20121;-63
2021/01/05 05:26:39;;;;;;;9.20;7.15;;;18.90;48.10;;;;;;5003316;28;20037;-66
2021/01/05 05:29:16;;;;;;;8.48;6.88;;;18.90;48.00;;;;;;5002898;28;20398;-65
2021/01/05 05:31:42;;;;;;;8.50;6.50;;;18.90;48.00;;;;;;5002871;28;20069;-63
2021/01/05 05:34:38;;;;;;;9.25;7.15;;;18.80;48.10;;;;;;4981995;28;20046;-61
2021/01/05 05:37:15;;;;;;;10.05;8.13;;;18.90;48.00;;;;;;4992954;28;20467;-65
2021/01/05 05:39:59;;;;;;;8.95;6.75;;;18.90;48.10;;;;;;5001384;28;20041;-65
2021/01/05 05:42:58;;;;;;;10.38;6.55;;;18.90;48.10;;;;;;5002236;28;20033;-66
2021/01/05 05:45:57;;;;;;;13.57;7.50;;;18.90;48.10;;;;;;4999761;28;20401;-62
2021/01/05 05:48:24;;;;;;;9.52;6.63;;;18.90;48.10;;;;;;5004243;28;20060;-64
2021/01/05 05:50:55;;;;;;;8.82;7.47;;;18.80;48.10;;;;;;5005242;28;20096;-65
2021/01/05 05:53:24;;;;;;;11.23;6.60;;;18.90;48.40;;;;;;5004872;28;20109;-65
2021/01/05 05:55:59;;;;;;;9.98;6.65;;;18.90;48.40;;;;;;5003571;28;20065;-65
2021/01/05 05:58:32;;;;;;;9.10;6.35;;;18.80;48.40;;;;;;4989531;28;20034;-64
2021/01/05 06:00:59;;;;;;;9.20;7.68;;;18.90;48.40;;;;;;5004557;28;20087;-64
2021/01/05 06:03:25;;;;;;;9.88;6.63;;;18.90;48.50;;;;;;4988590;28;20026;-65
2021/01/05 06:05:50;;;;;;;9.55;6.40;;;18.90;48.40;;;;;;5006107;28;20692;-65
2021/01/05 06:08:17;;;;;;;9.32;6.45;;;18.90;48.50;;;;;;5004701;28;20033;-64
2021/01/05 06:10:43;;;;;;;8.60;6.32;;;18.90;48.50;;;;;;4988536;28;20037;-62
2021/01/05 06:13:08;;;;;;;9.68;6.65;;;18.90;48.50;;;;;;4989789;28;20042;-63
2021/01/05 06:15:34;;;;;;;10.38;6.18;;;18.90;48.50;;;;;;5005835;28;20164;-66
2021/01/05 06:18:11;;;;;;;13.02;7.47;;;18.90;48.50;;;;;;5005913;28;20091;-63
2021/01/05 06:20:36;;;;;;;8.80;6.82;;;18.80;48.50;;;;;;5004364;28;20743;-66
2021/01/05 06:23:02;;;;;;;10.05;6.82;;;18.80;48.70;;;;;;5004162;28;20096;-64
2021/01/05 06:25:28;;;;;;;9.90;7.05;;;18.80;48.70;;;;;;4988118;28;20034;-66
2021/01/05 06:27:53;;;;;;;11.02;7.28;;;18.80;48.70;;;;;;5004198;28;20049;-67
2021/01/05 06:30:19;;;;;;;9.40;7.18;;;18.80;48.70;;;;;;5006533;28;20034;-66
2021/01/05 06:32:45;;;;;;;11.35;7.57;;;18.80;48.70;;;;;;5005646;28;20030;-66
2021/01/05 06:35:11;;;;;;;10.70;7.43;;;18.80;48.70;;;;;;5004430;28;20831;-65
2021/01/05 06:37:37;;;;;;;10.80;6.93;;;18.80;48.80;;;;;;4987902;28;20030;-66
2021/01/05 06:40:04;;;;;;;11.45;7.70;;;18.80;48.70;;;;;;5004259;28;20030;-66
2021/01/05 06:42:30;;;;;;;11.40;6.40;;;18.80;48.80;;;;;;4987791;28;20105;-66
2021/01/05 06:44:55;;;;;;;11.50;8.77;;;18.80;48.80;;;;;;5004062;28;20479;-66
2021/01/05 06:47:21;;;;;;;8.90;7.45;;;18.80;48.80;;;;;;4988517;28;20030;-66
2021/01/05 06:49:46;;;;;;;8.45;7.57;;;18.70;48.70;;;;;;5004405;28;20026;-65
2021/01/05 06:52:12;;;;;;;13.32;7.82;;;18.70;48.70;;;;;;5003915;28;20576;-65
2021/01/05 06:54:37;;;;;;;10.27;7.45;;;18.70;48.70;;;;;;4987146;28;20072;-63
2021/01/05 06:57:03;;;;;;;10.82;7.22;;;18.70;48.70;;;;;;5005665;28;20065;-65
2021/01/05 06:59:29;;;;;;;9.45;7.15;;;18.70;48.60;;;;;;5003714;28;20583;-65
2021/01/05 07:02:04;;;;;;;11.20;7.35;;;18.70;48.60;;;;;;5003574;28;20117;-68
2021/01/05 07:04:30;;;;;;;8.85;7.63;;;18.70;48.60;;;;;;4986920;28;20040;-67
2021/01/05 07:06:55;;;;;;;9.57;7.32;;;18.70;48.60;;;;;;4987876;28;20038;-65
2021/01/05 07:09:21;;;;;;;11.15;7.40;;;18.80;48.70;;;;;;4988175;28;20026;-66
2021/01/05 07:11:47;;;;;;;8.00;6.72;;;18.70;48.60;;;;;;4987385;28;20042;-67
2021/01/05 07:14:13;;;;;;;9.75;6.88;;;18.80;48.70;;;;;;4987640;28;20712;-66
2021/01/05 07:16:39;;;;;;;9.20;7.45;;;18.70;48.70;;;;;;5004580;28;20096;-66
2021/01/05 07:19:04;;;;;;;7.82;6.50;;;18.70;48.70;;;;;;5003089;28;20536;-66
2021/01/05 07:21:30;;;;;;;8.30;6.40;;;18.70;48.70;;;;;;5002841;28;20034;-66
2021/01/05 07:23:55;;;;;;;9.55;6.57;;;18.80;48.80;;;;;;5005318;28;20083;-67
2021/01/05 07:26:21;;;;;;;8.93;7.25;;;18.70;48.80;;;;;;5003587;28;20029;-66
2021/01/05 07:28:46;;;;;;;8.25;7.07;;;18.70;48.80;;;;;;5004844;28;20549;-66
2021/01/05 07:31:12;;;;;;;7.57;6.63;;;18.70;48.80;;;;;;5003060;28;20040;-66
2021/01/05 07:33:37;;;;;;;9.02;6.82;;;18.70;48.80;;;;;;5003450;28;20129;-67
2021/01/05 07:36:07;;;;;;;10.15;7.38;;;18.80;48.90;;;;;;4987441;28;20037;-66
2021/01/05 07:38:33;;;;;;;9.95;6.90;;;18.70;49.00;;;;;;4987275;28;20048;-67
2021/01/05 07:40:58;;;;;;;11.13;7.10;;;18.70;48.90;;;;;;5004554;28;20030;-66
2021/01/05 07:43:24;;;;;;;9.05;6.70;;;18.70;49.00;;;;;;5004803;28;20770;-64
2021/01/05 07:45:49;;;;;;;9.32;6.30;;;18.70;49.00;;;;;;5003224;28;20025;-67
2021/01/05 07:48:15;;;;;;;8.75;6.90;;;18.70;49.00;;;;;;5004535;28;20034;-66
2021/01/05 07:50:40;;;;;;;8.27;6.80;;;18.70;49.00;;;;;;5002923;28;20108;-66
2021/01/05 07:53:06;;;;;;;10.25;7.18;;;18.70;49.00;;;;;;5004217;28;20504;-67
2021/01/05 07:55:33;;;;;;;8.38;7.30;;;18.70;49.00;;;;;;4970638;28;20033;-66
2021/01/05 07:57:58;;;;;;;8.10;6.85;;;18.80;49.10;;;;;;5004698;28;20026;-66
2021/01/05 08:00:25;;;;;;;8.68;7.78;;;18.70;49.00;;;;;;5004947;28;20404;-66
2021/01/05 08:02:53;;;;;;;8.43;6.53;;;18.70;49.00;;;;;;4986457;28;20030;-66
2021/01/05 08:05:19;;;;;;;9.18;6.82;;;18.70;49.00;;;;;;4986935;28;20037;-66
2021/01/05 08:07:45;;;;;;;8.32;6.32;;;18.70;49.10;;;;;;5002598;28;20412;-64
2021/01/05 08:10:28;;;;;;;9.07;6.90;;;18.80;49.00;;;;;;5001740;28;20037;-66
2021/01/05 08:12:54;;;;;;;7.25;6.55;;;18.80;49.00;;;;;;5002243;28;20033;-65
2021/01/05 08:15:21;;;;;;;7.57;6.55;;;18.70;49.00;;;;;;4986159;28;20030;-63
2021/01/05 08:17:46;;;;;;;8.93;7.10;;;18.80;49.00;;;;;;4986386;28;20157;-65
2021/01/05 08:20:12;;;;;;;8.25;6.93;;;18.80;49.00;;;;;;5002719;28;20112;-66
2021/01/05 08:22:37;;;;;;;8.38;6.95;;;18.80;49.10;;;;;;5002456;28;20034;-66
2021/01/05 08:25:03;;;;;;;9.73;7.38;;;18.80;49.10;;;;;;5002640;28;20045;-64
2021/01/05 08:27:29;;;;;;;9.02;6.88;;;18.80;49.00;;;;;;5003111;28;20030;-64
2021/01/05 08:29:54;;;;;;;8.70;7.18;;;18.80;49.00;;;;;;5004053;28;20497;-65
2021/01/05 08:32:22;;;;;;;8.48;7.57;;;18.80;49.00;;;;;;5003772;28;20103;-65
2021/01/05 08:34:47;;;;;;;9.75;7.65;;;18.80;48.90;;;;;;5002418;28;20049;-64
2021/01/05 08:37:13;;;;;;;8.43;6.32;;;18.80;48.90;;;;;;5002590;28;20133;-66
2021/01/05 08:39:38;;;;;;;9.23;7.50;;;18.80;48.80;;;;;;4987021;28;20030;-65
2021/01/05 08:42:04;;;;;;;10.13;7.13;;;18.80;48.80;;;;;;5002190;28;20113;-65
2021/01/05 08:44:29;;;;;;;7.93;7.03;;;18.90;48.80;;;;;;5019311;28;20029;-64
2021/01/05 08:46:59;;;;;;;9.27;7.65;;;18.90;48.80;;;;;;5004134;28;20548;-66
2021/01/05 08:49:24;;;;;;;9.65;7.57;;;18.90;48.80;;;;;;5009282;28;20029;-65
2021/01/05 08:51:52;;;;;;;9.40;7.45;;;18.90;48.80;;;;;;5015367;28;20087;-65
2021/01/05 08:54:17;;;;;;;8.23;7.35;;;18.90;48.80;;;;;;5014472;28;20038;-66
2021/01/05 08:56:43;;;;;;;8.75;7.15;;;18.90;48.80;;;;;;5003668;28;20049;-66
2021/01/05 08:59:08;;;;;;;7.68;6.85;;;18.90;48.80;;;;;;5002533;28;20037;-65
2021/01/05 09:01:34;;;;;;;7.80;7.00;;;18.90;48.80;;;;;;5003378;28;20030;-67
2021/01/05 09:04:00;;;;;;;8.57;7.07;;;18.90;48.80;;;;;;5002918;28;20037;-67
2021/01/05 09:06:25;;;;;;;8.38;7.05;;;18.90;48.80;;;;;;4996613;28;20026;-67
2021/01/05 09:08:51;;;;;;;9.48;7.25;;;18.90;48.90;;;;;;4966743;28;20023;-67
2021/01/05 09:11:21;;;;;;;7.85;7.05;;;18.90;48.90;;;;;;4983946;28;20126;-67
2021/01/05 09:13:47;;;;;;;7.95;7.15;;;18.90;48.80;;;;;;4982440;28;20065;-66
2021/01/05 09:16:26;;;;;;;8.20;7.35;;;18.90;48.90;;;;;;5002956;28;20046;-67
2021/01/05 09:18:52;;;;;;;8.25;7.00;;;18.90;48.80;;;;;;5002694;28;20037;-66
2021/01/05 09:21:22;;;;;;;8.80;6.93;;;18.90;48.90;;;;;;5003029;28;20045;-67
2021/01/05 09:23:51;;;;;;;8.30;7.13;;;18.90;48.80;;;;;;5005580;28;20025;-68
2021/01/05 09:26:23;;;;;;;7.70;6.93;;;18.90;48.80;;;;;;4989667;28;20468;-67
2021/01/05 09:28:49;;;;;;;8.45;7.18;;;18.90;48.80;;;;;;5003635;28;20033;-66
2021/01/05 09:31:15;;;;;;;8.15;6.80;;;18.90;48.80;;;;;;5004526;28;20045;-66
2021/01/05 09:33:40;;;;;;;7.50;6.70;;;18.90;48.80;;;;;;5002758;28;20030;-67
2021/01/05 09:36:07;;;;;;;7.47;6.68;;;18.90;48.80;;;;;;5004026;28;20041;-65
2021/01/05 09:38:32;;;;;;;7.35;6.50;;;18.90;48.80;;;;;;5004405;28;20050;-65
2021/01/05 09:40:58;;;;;;;7.88;6.97;;;18.90;48.80;;;;;;5004188;28;20026;-66
2021/01/05 09:43:23;;;;;;;9.63;8.20;;;18.90;48.80;;;;;;5005704;28;20656;-63
2021/01/05 09:45:49;;;;;;;9.05;7.10;;;18.90;48.80;;;;;;5000723;28;20034;-64
2021/01/05 09:48:15;;;;;;;7.78;6.97;;;18.90;48.70;;;;;;5006793;28;20026;-66
2021/01/05 09:50:42;;;;;;;7.80;7.00;;;18.90;48.70;;;;;;5005456;28;20704;-66
2021/01/05 09:53:07;;;;;;;7.32;6.57;;;18.90;48.70;;;;;;5005399;28;20053;-67
2021/01/05 09:55:33;;;;;;;7.63;6.35;;;18.90;48.70;;;;;;5005391;28;20135;-66
2021/01/05 09:57:59;;;;;;;7.88;6.93;;;18.90;48.60;;;;;;5006234;28;20534;-64
2021/01/05 10:00:25;;;;;;;10.00;6.95;;;18.90;48.60;;;;;;5005122;28;20034;-66
2021/01/05 10:02:50;;;;;;;7.70;6.38;;;18.90;48.60;;;;;;5004784;28;20026;-67
2021/01/05 10:05:16;;;;;;;7.97;6.53;;;18.90;48.60;;;;;;5005558;28;20034;-66
2021/01/05 10:07:42;;;;;;;8.52;6.95;;;18.90;48.60;;;;;;5005710;28;20064;-65
2021/01/05 10:10:08;;;;;;;7.95;7.05;;;18.90;48.60;;;;;;5005976;28;20502;-64
2021/01/05 10:12:34;;;;;;;7.55;6.53;;;18.90;48.60;;;;;;5005391;28;20026;-63
2021/01/05 10:15:00;;;;;;;8.25;6.60;;;18.90;48.50;;;;;;5006390;28;20029;-66
2021/01/05 10:17:25;;;;;;;7.68;6.35;;;18.90;48.50;;;;;;5004865;28;20034;-66
2021/01/05 10:19:51;;;;;;;8.85;7.57;;;18.90;48.50;;;;;;5004299;28;20022;-64
2021/01/05 10:22:16;;;;;;;8.57;7.13;;;18.90;48.50;;;;;;5004624;28;20041;-64
2021/01/05 10:24:41;;;;;;;8.38;6.90;;;18.90;48.50;;;;;;5005795;28;20030;-66
2021/01/05 10:27:07;;;;;;;7.88;6.32;;;18.90;48.40;;;;;;5005298;28;20040;-66
2021/01/05 10:29:32;;;;;;;7.93;6.85;;;18.90;48.40;;;;;;5004530;28;20112;-66
2021/01/05 10:31:58;;;;;;;8.27;6.50;;;18.90;48.40;;;;;;5006243;28;20409;-66
2021/01/05 10:34:24;;;;;;;8.00;6.72;;;18.90;48.40;;;;;;4986889;28;20040;-66
2021/01/05 10:36:54;;;;;;;7.88;6.68;;;18.90;48.40;;;;;;5004607;28;20029;-66
2021/01/05 10:39:19;;;;;;;6.93;6.22;;;18.90;48.40;;;;;;4988167;28;20091;-66
2021/01/05 10:41:45;;;;;;;7.28;6.47;;;18.90;48.40;;;;;;5004152;28;20038;-67
2021/01/05 10:44:12;;;;;;;7.93;6.50;;;18.90;48.50;;;;;;5005826;28;20142;-64
2021/01/05 10:46:37;;;;;;;8.27;7.30;;;18.90;48.50;;;;;;4988300;28;20025;-66
2021/01/05 10:49:03;;;;;;;7.10;6.40;;;18.90;48.50;;;;;;4987464;28;20091;-66
2021/01/05 10:51:28;;;;;;;7.95;6.63;;;18.90;48.50;;;;;;5004127;28;20664;-67
2021/01/05 10:53:54;;;;;;;7.32;6.55;;;18.90;48.60;;;;;;5005516;28;20037;-66
2021/01/05 10:56:19;;;;;;;9.32;6.72;;;18.90;48.60;;;;;;5004106;28;20037;-66
2021/01/05 10:58:45;;;;;;;7.43;6.57;;;18.90;48.70;;;;;;5005511;28;20440;-66
2021/01/05 11:01:11;;;;;;;7.07;6.38;;;18.90;48.70;;;;;;5005348;28;20095;-64
2021/01/05 11:03:36;;;;;;;8.27;6.80;;;18.90;48.80;;;;;;4987510;28;20026;-64
2021/01/05 11:06:08;;;;;;;7.43;6.30;;;18.90;48.80;;;;;;5004967;28;20037;-66
2021/01/05 11:08:34;;;;;;;8.88;7.20;;;18.80;48.70;;;;;;5004395;28;20493;-65
2021/01/05 11:11:03;;;;;;;6.90;5.90;;;18.80;48.80;;;;;;5003553;28;20026;-64
2021/01/05 11:13:29;;;;;;;6.93;6.22;;;18.90;48.80;;;;;;5004957;28;20036;-65
2021/01/05 11:15:55;;;;;;;7.35;6.47;;;18.90;48.80;;;;;;5003524;28;20025;-64
2021/01/05 11:18:20;;;;;;;9.05;6.47;;;18.90;48.80;;;;;;5004828;28;20038;-66
2021/01/05 11:20:46;;;;;;;7.55;6.45;;;18.90;48.80;;;;;;5004543;28;20026;-66
2021/01/05 11:23:11;;;;;;;7.68;6.43;;;18.90;48.80;;;;;;4987250;28;20055;-65
2021/01/05 11:25:37;;;;;;;7.97;7.10;;;18.90;48.80;;;;;;4987362;28;20037;-64
2021/01/05 11:28:03;;;;;;;8.43;7.30;;;18.90;48.80;;;;;;5005304;28;20026;-66
2021/01/05 11:30:29;;;;;;;8.52;7.03;;;18.90;48.70;;;;;;5005410;28;20488;-64
2021/01/05 11:32:54;;;;;;;8.40;7.15;;;18.90;48.70;;;;;;5004732;28;20072;-66
2021/01/05 11:35:20;;;;;;;7.40;6.60;;;18.80;48.70;;;;;;5005100;28;20092;-64
2021/01/05 11:37:45;;;;;;;7.20;6.20;;;18.90;48.70;;;;;;5003422;28;20025;-68
2021/01/05 11:40:11;;;;;;;7.55;6.65;;;18.80;48.60;;;;;;5003972;28;20060;-63
2021/01/05 11:42:37;;;;;;;8.07;6.28;;;18.90;48.60;;;;;;5003393;28;20046;-65
2021/01/05 11:45:04;;;;;;;8.15;6.43;;;18.90;48.60;;;;;;5003218;28;20033;-64
2021/01/05 11:47:30;;;;;;;8.13;6.63;;;18.80;48.50;;;;;;5003002;28;20030;-64
2021/01/05 11:49:56;;;;;;;8.13;6.50;;;18.80;48.50;;;;;;5003094;28;20026;-65
2021/01/05 11:52:21;;;;;;;9.00;7.10;;;18.80;48.50;;;;;;5003123;28;20721;-66
2021/01/05 11:54:47;;;;;;;7.65;6.47;;;18.80;48.40;;;;;;5004280;28;20032;-66
2021/01/05 11:57:12;;;;;;;7.60;6.47;;;18.90;48.40;;;;;;5003534;28;20499;-65
2021/01/05 11:59:38;;;;;;;6.60;5.90;;;18.90;48.40;;;;;;5004137;28;20436;-63
2021/01/05 12:02:03;;;;;;;7.88;6.30;;;18.90;48.40;;;;;;5002187;28;20033;-66
2021/01/05 12:04:29;;;;;;;6.85;5.80;;;18.90;48.40;;;;;;5004627;28;20061;-64
2021/01/05 12:06:55;;;;;;;7.35;6.55;;;18.90;48.40;;;;;;4986410;28;20049;-67
2021/01/05 12:09:22;;;;;;;7.93;6.55;;;18.90;48.30;;;;;;5002895;28;20033;-66
2021/01/05 12:11:48;;;;;;;7.35;6.20;;;18.90;48.30;;;;;;5002531;28;20025;-64
2021/01/05 12:14:13;;;;;;;7.72;6.30;;;18.90;48.30;;;;;;5003416;28;20030;-64
2021/01/05 12:16:44;;;;;;;7.97;7.18;;;18.90;48.30;;;;;;5003825;28;20034;-66
2021/01/05 12:19:15;;;;;;;7.60;5.93;;;18.90;48.30;;;;;;5002678;28;20041;-66
2021/01/05 12:21:41;;;;;;;8.05;6.43;;;18.90;48.30;;;;;;5002785;28;20042;-64
2021/01/05 12:24:07;;;;;;;7.55;6.22;;;18.90;48.20;;;;;;5002829;28;20083;-65
2021/01/05 12:26:35;;;;;;;7.18;6.10;;;18.90;48.30;;;;;;5003727;28;20076;-64
2021/01/05 12:29:03;;;;;;;7.30;6.18;;;18.80;48.30;;;;;;5004228;28;20046;-64
2021/01/05 12:31:28;;;;;;;6.15;5.38;;;18.80;48.30;;;;;;5002047;28;20034;-64
2021/01/05 12:33:54;;;;;;;8.43;6.70;;;18.80;48.30;;;;;;5004184;28;20508;-63
2021/01/05 12:36:33;;;;;;;6.35;5.75;;;18.80;48.40;;;;;;5003572;28;20034;-66
2021/01/05 12:38:59;;;;;;;8.13;6.05;;;18.80;48.40;;;;;;4986117;28;20077;-66
2021/01/05 12:41:36;;;;;;;6.60;5.90;;;18.80;48.40;;;;;;5003675;28;20037;-64
2021/01/05 12:44:01;;;;;;;7.05;6.35;;;18.80;48.50;;;;;;5002368;28;20030;-63
2021/01/05 12:46:29;;;;;;;7.03;6.32;;;18.80;48.40;;;;;;5002588;28;20056;-66
2021/01/05 12:48:55;;;;;;;7.13;6.43;;;18.80;48.50;;;;;;5003346;28;20026;-65
2021/01/05 12:51:30;;;;;;;7.40;6.55;;;18.80;48.40;;;;;;4986914;28;20037;-67
2021/01/05 12:53:56;;;;;;;7.18;6.47;;;18.80;48.40;;;;;;5001892;28;20025;-67
2021/01/05 12:56:21;;;;;;;6.93;5.65;;;18.80;48.40;;;;;;5003724;28;20092;-67